createdAt,value
2023-04-13T00:01:08.723Z,99315.41
2023-04-13T00:06:04.239Z,99313.59
2023-04-13T00:10:54.687Z,99309.31
2023-04-13T00:15:48.251Z,99307.63
2023-04-13T00:20:43.996Z,99307.69
2023-04-13T00:25:37.394Z,99310.31
2023-04-13T00:30:34.226Z,99293.84
2023-04-13T00:35:28.287Z,99293.78
2023-04-13T00:40:34.099Z,99292.31
2023-04-13T00:45:28.482Z,99310.31
2023-04-13T00:50:25.498Z,99319.00
2023-04-13T00:55:23.522Z,99317.00
2023-04-13T01:00:21.451Z,99331.00
2023-04-13T01:05:19.206Z,99336.84
2023-04-13T01:10:17.647Z,99340.22
2023-04-13T01:15:27.648Z,99355.78
2023-04-13T01:20:25.412Z,99364.97
2023-04-13T01:25:26.469Z,99372.75
2023-04-13T01:30:28.370Z,99379.66
2023-04-13T01:35:23.122Z,99380.84
2023-04-13T01:40:28.440Z,99397.22
2023-04-13T01:45:29.385Z,99411.09
2023-04-13T01:50:31.237Z,99421.59
2023-04-13T01:55:33.803Z,99430.19
2023-04-13T02:00:39.626Z,99434.59
2023-04-13T02:05:41.993Z,99450.16
2023-04-13T02:10:40.982Z,99459.78
2023-04-13T02:15:35.881Z,99473.53
2023-04-13T02:20:26.503Z,99469.28
2023-04-13T02:25:19.494Z,99482.06
2023-04-13T02:30:15.916Z,99480.28
2023-04-13T02:35:10.477Z,99501.75
2023-04-13T02:40:02.564Z,99498.34
2023-04-13T02:44:56.315Z,99501.69
2023-04-13T02:49:48.204Z,99509.50
2023-04-13T02:54:54.777Z,99519.03
2023-04-13T02:59:53.151Z,99516.50
2023-04-13T03:04:53.520Z,99532.69
2023-04-13T03:09:47.071Z,99529.25
2023-04-13T03:14:41.488Z,99542.13
2023-04-13T03:19:36.533Z,99547.31
2023-04-13T03:24:35.924Z,99553.22
2023-04-13T03:29:32.130Z,99566.16
2023-04-13T03:34:25.189Z,99571.44
2023-04-13T03:39:17.241Z,99591.81
2023-04-13T03:44:12.224Z,99591.06
2023-04-13T03:49:09.511Z,99602.38
2023-04-13T03:54:01.742Z,99606.59
2023-04-13T03:58:53.315Z,99631.38
2023-04-13T04:03:56.730Z,99627.94
2023-04-13T04:08:51.559Z,99639.16
2023-04-13T04:13:56.145Z,99641.00
2023-04-13T04:18:48.176Z,99642.50
2023-04-13T04:23:47.624Z,99636.38
2023-04-13T04:28:41.983Z,99642.31
2023-04-13T04:33:39.090Z,99638.84
2023-04-13T04:38:33.553Z,99637.09
2023-04-13T04:43:46.796Z,99635.41
2023-04-13T04:48:46.133Z,99651.84
2023-04-13T04:53:45.019Z,99657.88
2023-04-13T04:58:40.955Z,99670.13
2023-04-13T05:03:49.106Z,99682.13
2023-04-13T05:08:53.452Z,99700.31
2023-04-13T05:13:56.947Z,99700.28
2023-04-13T05:18:59.833Z,99712.38
2023-04-13T05:24:26.212Z,99722.88
2023-04-13T05:29:18.003Z,99745.28
2023-04-13T05:34:13.252Z,99729.91
2023-04-13T05:39:12.458Z,99728.91
2023-04-13T05:44:03.421Z,99743.56
2023-04-13T05:48:58.552Z,99748.59
2023-04-13T05:53:53.529Z,99752.88
2023-04-13T05:58:45.230Z,99763.03
2023-04-13T06:03:44.411Z,99774.16
2023-04-13T06:08:35.840Z,99779.22
2023-04-13T06:13:28.063Z,99777.41
2023-04-13T06:18:18.656Z,99807.56
2023-04-13T06:23:12.303Z,99803.13
2023-04-13T06:28:10.059Z,99815.41
2023-04-13T06:33:12.688Z,99826.53
2023-04-13T06:38:08.614Z,99824.56
2023-04-13T06:43:22.644Z,99825.41
2023-04-13T06:48:44.578Z,99842.44
2023-04-13T06:53:36.589Z,99857.09
2023-04-13T06:58:31.865Z,99852.47
2023-04-13T07:03:27.121Z,99871.47
2023-04-13T07:08:21.848Z,99874.69
2023-04-13T07:13:21.106Z,99878.53
2023-04-13T07:18:12.003Z,99871.44
2023-04-13T07:23:03.065Z,99898.91
2023-04-13T07:28:00.826Z,99905.06
2023-04-13T07:32:54.448Z,99921.19
2023-04-13T07:37:47.749Z,99933.31
2023-04-13T07:42:48.799Z,99932.97
2023-04-13T07:47:46.432Z,99958.06
2023-04-13T07:52:43.136Z,99959.78
2023-04-13T07:57:34.321Z,99961.16
2023-04-13T08:02:32.313Z,99973.78
2023-04-13T08:07:28.033Z,99983.28
2023-04-13T08:12:21.681Z,100003.31
2023-04-13T08:17:14.645Z,100008.78
2023-04-13T08:22:07.855Z,100014.06
2023-04-13T08:27:04.257Z,100020.13
2023-04-13T08:31:54.820Z,100030.50
2023-04-13T08:36:47.415Z,100050.16
2023-04-13T08:41:44.323Z,100043.28
2023-04-13T08:46:42.856Z,100056.69
2023-04-13T08:51:42.602Z,100059.78
2023-04-13T08:56:45.493Z,100077.66
2023-04-13T09:01:57.018Z,100069.81
2023-04-13T09:06:55.359Z,100081.94
2023-04-13T09:11:51.548Z,100087.63
2023-04-13T09:16:44.284Z,100119.69
2023-04-13T09:21:46.731Z,100098.81
2023-04-13T09:26:46.983Z,100126.31
2023-04-13T09:31:39.152Z,100131.72
2023-04-13T09:36:33.312Z,100149.00
2023-04-13T09:41:48.380Z,100163.53
2023-04-13T09:46:45.289Z,100165.56
2023-04-13T09:51:46.032Z,100183.19
2023-04-13T09:56:54.054Z,100173.56
2023-04-13T10:01:46.928Z,100176.16
2023-04-13T10:06:46.187Z,100184.97
2023-04-13T10:11:42.774Z,100202.16
2023-04-13T10:17:06.347Z,100207.13
2023-04-13T10:22:02.632Z,100231.94
2023-04-13T10:26:59.136Z,100211.31
2023-04-13T10:32:00.730Z,100254.88
2023-04-13T10:37:15.829Z,100266.16
2023-04-13T10:42:18.076Z,100271.66
2023-04-13T10:47:09.724Z,100273.34
2023-04-13T10:52:02.887Z,100278.41
2023-04-13T10:57:07.107Z,100284.91
2023-04-13T11:01:58.365Z,100299.72
2023-04-13T11:06:51.906Z,100289.44
2023-04-13T11:11:56.898Z,100305.75
2023-04-13T11:16:58.484Z,100315.94
2023-04-13T11:22:00.265Z,100323.69
2023-04-13T11:27:00.919Z,100324.72
2023-04-13T11:31:55.915Z,100336.53
2023-04-13T11:36:54.353Z,100345.72
2023-04-13T11:41:47.757Z,100364.44
2023-04-13T11:46:41.852Z,100361.19
2023-04-13T11:51:38.526Z,100369.22
2023-04-13T11:56:29.236Z,100387.00
2023-04-13T12:01:26.178Z,100371.97
2023-04-13T12:06:22.296Z,100379.78
2023-04-13T12:11:40.500Z,100389.03
2023-04-13T12:17:01.687Z,100378.59
2023-04-13T12:22:12.118Z,100403.91
2023-04-13T12:32:12.241Z,100415.66
2023-04-13T12:37:05.487Z,100391.03
2023-04-13T12:41:57.174Z,100399.44
2023-04-13T12:46:53.370Z,100389.47
2023-04-13T12:51:47.851Z,100402.38
2023-04-13T12:56:46.208Z,100423.94
2023-04-13T13:01:39.458Z,100406.34
2023-04-13T13:06:36.845Z,100420.03
2023-04-13T13:11:29.832Z,100418.59
2023-04-13T13:16:23.636Z,100421.59
2023-04-13T13:21:17.524Z,100419.88
2023-04-13T13:31:08.999Z,100439.41
2023-04-13T13:36:04.863Z,100450.72
2023-04-13T13:40:58.077Z,100440.38
2023-04-13T13:45:51.926Z,100460.69
2023-04-13T13:50:46.847Z,100452.66
2023-04-13T13:55:48.754Z,100457.25
2023-04-13T14:00:43.252Z,100463.03
2023-04-13T14:05:35.781Z,100463.03
2023-04-13T14:10:31.372Z,100449.28
2023-04-13T14:15:25.237Z,100467.59
2023-04-13T14:20:16.688Z,100480.25
2023-04-13T14:25:12.607Z,100475.09
2023-04-13T14:30:12.192Z,100500.63
2023-04-13T14:35:06.663Z,100507.78
2023-04-13T14:40:00.248Z,100515.13
2023-04-13T14:44:55.806Z,100498.34
2023-04-13T14:49:53.941Z,100521.03
2023-04-13T14:54:51.173Z,100511.84
2023-04-13T14:59:48.240Z,100528.69
2023-04-13T15:04:43.621Z,100509.41
2023-04-13T15:09:42.920Z,100517.22
2023-04-13T15:14:36.568Z,100520.41
2023-04-13T15:19:40.534Z,100531.50
2023-04-13T15:24:32.169Z,100524.72
2023-04-13T15:29:25.785Z,100520.94
2023-04-13T15:34:21.930Z,100520.69
2023-04-13T15:39:12.803Z,100524.00
2023-04-13T15:44:06.193Z,100537.81
2023-04-13T15:48:56.865Z,100539.66
2023-04-13T15:53:56.637Z,100546.63
2023-04-13T15:58:48.028Z,100543.28
2023-04-13T16:03:45.400Z,100543.44
2023-04-13T16:08:41.178Z,100552.16
2023-04-13T16:18:36.542Z,100563.81
2023-04-13T16:23:32.048Z,100570.53
2023-04-13T16:28:31.080Z,100580.94
2023-04-13T16:33:33.413Z,100575.16
2023-04-13T16:38:26.069Z,100577.81
2023-04-13T16:43:17.862Z,100586.44
2023-04-13T16:48:18.281Z,100584.50
2023-04-13T16:53:13.013Z,100587.19
2023-04-13T16:58:06.478Z,100580.44
2023-04-13T17:02:59.453Z,100586.78
2023-04-13T17:07:54.694Z,100588.88
2023-04-13T17:12:53.867Z,100585.56
2023-04-13T17:17:45.300Z,100602.75
2023-04-13T17:22:39.872Z,100589.06
2023-04-13T17:27:32.353Z,100602.94
2023-04-13T17:32:28.443Z,100619.69
2023-04-13T17:37:24.687Z,100619.19
2023-04-13T17:42:33.418Z,100640.72
2023-04-13T17:47:30.437Z,100628.34
2023-04-13T17:52:23.632Z,100642.53
2023-04-13T17:57:22.128Z,100635.03
2023-04-13T18:02:14.898Z,100643.72
2023-04-13T18:07:10.719Z,100647.31
2023-04-13T18:12:05.357Z,100642.25
2023-04-13T18:16:57.610Z,100645.88
2023-04-13T18:21:49.348Z,100659.84
2023-04-13T18:26:47.675Z,100671.16
2023-04-13T18:31:42.663Z,100671.72
2023-04-13T18:36:37.959Z,100687.16
2023-04-13T18:41:29.425Z,100701.34
2023-04-13T18:46:26.651Z,100699.63
2023-04-13T18:51:16.675Z,100703.97
2023-04-13T18:56:08.741Z,100707.56
2023-04-13T19:00:58.851Z,100725.78
2023-04-13T19:05:53.828Z,100732.78
2023-04-13T19:10:45.459Z,100738.84
2023-04-13T19:15:39.959Z,100741.53
2023-04-13T19:20:30.457Z,100756.22
2023-04-13T19:25:29.235Z,100758.78
2023-04-13T19:30:24.254Z,100762.28
2023-04-13T19:35:16.616Z,100768.41
2023-04-13T19:40:14.127Z,100777.09
2023-04-13T19:45:09.705Z,100769.38
2023-04-13T19:50:00.375Z,100777.16
2023-04-13T19:54:53.393Z,100787.56
2023-04-13T19:59:44.638Z,100795.34
2023-04-13T20:04:42.479Z,100797.97
2023-04-13T20:09:37.508Z,100800.66
2023-04-13T20:14:29.515Z,100816.19
2023-04-13T20:19:21.657Z,100822.28
2023-04-13T20:24:14.428Z,100824.00
2023-04-13T20:29:05.713Z,100837.81
2023-04-13T20:33:56.120Z,100843.06
2023-04-13T20:38:47.036Z,100844.75
2023-04-13T20:43:42.750Z,100849.94
2023-04-13T20:53:41.529Z,100849.94
2023-04-13T20:58:33.512Z,100856.81
2023-04-13T21:03:32.358Z,100848.19
2023-04-13T21:08:24.252Z,100852.53
2023-04-13T21:13:22.924Z,100852.50
2023-04-13T21:18:13.643Z,100855.09
2023-04-13T21:23:07.228Z,100849.94
2023-04-13T21:28:03.515Z,100849.94
2023-04-13T21:32:54.547Z,100849.94
2023-04-13T21:37:45.737Z,100843.03
2023-04-13T21:42:45.449Z,100849.06
2023-04-13T21:47:42.507Z,100854.22
2023-04-13T21:52:33.221Z,100843.00
2023-04-13T21:57:24.324Z,100849.94
2023-04-13T22:02:24.655Z,100840.44
2023-04-13T22:07:16.228Z,100839.59
2023-04-13T22:12:06.929Z,100835.25
2023-04-13T22:17:02.347Z,100837.84
2023-04-13T22:21:57.268Z,100831.78
2023-04-13T22:26:50.888Z,100838.69
2023-04-13T22:31:43.869Z,100844.72
2023-04-13T22:36:36.946Z,100848.19
2023-04-13T22:41:33.446Z,100858.53
2023-04-13T22:46:26.080Z,100854.19
2023-04-13T22:51:17.009Z,100849.00
2023-04-13T22:56:08.078Z,100852.44
2023-04-13T23:01:04.238Z,100853.31
2023-04-13T23:05:54.461Z,100846.41
2023-04-13T23:10:44.258Z,100850.69
2023-04-13T23:15:37.619Z,100856.72
2023-04-13T23:20:35.526Z,100858.44
2023-04-13T23:25:26.924Z,100854.00
2023-04-13T23:30:21.340Z,100858.28
2023-04-13T23:35:13.583Z,100856.63
2023-04-13T23:40:08.093Z,100855.72
2023-04-13T23:45:03.634Z,100861.75
2023-04-13T23:50:09.237Z,100866.06
2023-04-13T23:55:04.135Z,100859.97
